Time;durP1;ratioP1;P1;durP2;ratioP2;P2;SDS_P1;SDS_P2;PMS_P1;PMS_P2;Temp;Humidity;BMP_temperature;BMP_pressure;BME280_temperature;BME280_humidity;BME280_pressure;Samples;Min_cycle;Max_cycle;Signal;HPM_P1;HPM_P2
2023/03/04 00:01:22;;;;;;;50.55;29.85;;;;;;;3.06;82.56;98609.25;4180714;28;20206;-86
2023/03/04 00:03:25;;;;;;;47.40;29.80;;;;;;;3.06;82.32;98606.69;4183271;28;20221;-86
2023/03/04 00:05:30;;;;;;;43.58;27.30;;;;;;;3.00;81.59;98605.13;4176978;28;20202;-87
2023/03/04 00:07:33;;;;;;;48.20;28.15;;;;;;;2.97;81.63;98602.63;4190175;28;20206;-86
2023/03/04 00:09:36;;;;;;;44.85;27.90;;;;;;;2.94;82.02;98605.31;4191028;28;20701;-86
2023/03/04 00:11:39;;;;;;;48.95;29.10;;;;;;;2.93;82.28;98603.66;4166944;28;20743;-86
2023/03/04 00:13:42;;;;;;;47.75;27.73;;;;;;;2.92;82.33;98598.53;4180495;28;20247;-86
2023/03/04 00:15:45;;;;;;;43.47;26.77;;;;;;;2.90;82.08;98595.16;4186803;28;20203;-86
2023/03/04 00:17:50;;;;;;;46.20;28.05;;;;;;;2.86;82.24;98598.72;4192036;28;20698;-86
2023/03/04 00:19:53;;;;;;;50.88;29.25;;;;;;;2.85;82.37;98597.03;4183866;28;20312;-86
2023/03/04 00:21:58;;;;;;;52.00;29.25;;;;;;;2.81;82.87;98604.00;4200350;28;20300;-86
2023/03/04 00:24:01;;;;;;;47.72;29.30;;;;;;;2.80;82.93;98598.91;4175270;28;20222;-86
2023/03/04 00:26:05;;;;;;;48.40;29.15;;;;;;;2.79;82.82;98598.94;4173651;28;20208;-86
2023/03/04 00:28:08;;;;;;;46.17;27.60;;;;;;;2.76;83.19;98601.63;4195296;28;20228;-86
2023/03/04 00:30:12;;;;;;;41.70;26.42;;;;;;;2.76;82.67;98599.88;4184565;28;20834;-86
2023/03/04 00:32:17;;;;;;;50.42;29.00;;;;;;;2.75;82.65;98608.47;4183332;28;20209;-86
2023/03/04 00:34:21;;;;;;;51.15;28.55;;;;;;;2.74;82.68;98606.81;4191206;28;20259;-86
2023/03/04 00:36:25;;;;;;;50.70;28.92;;;;;;;2.74;83.05;98605.94;4174270;28;20214;-86
2023/03/04 00:38:30;;;;;;;53.33;32.80;;;;;;;2.72;82.54;98603.44;4181237;28;20214;-86
2023/03/04 00:40:34;;;;;;;64.75;34.60;;;;;;;2.70;82.87;98605.19;4172920;28;20267;-86
2023/03/04 00:42:37;;;;;;;48.85;28.60;;;;;;;2.66;82.79;98606.19;4167805;28;20271;-86
2023/03/04 00:44:40;;;;;;;59.28;31.35;;;;;;;2.61;82.85;98599.47;4173087;28;20297;-86
2023/03/04 00:46:43;;;;;;;56.38;32.47;;;;;;;2.59;82.81;98601.28;4187462;28;20561;-86
2023/03/04 00:48:46;;;;;;;58.25;33.40;;;;;;;2.60;83.28;98603.81;4190488;28;20209;-86
2023/03/04 00:50:52;;;;;;;55.45;30.77;;;;;;;2.59;83.31;98596.94;4187165;28;20315;-86
2023/03/04 00:52:55;;;;;;;56.75;30.70;;;;;;;2.57;83.48;98598.75;4188923;28;20216;-86
2023/03/04 00:54:59;;;;;;;47.50;27.15;;;;;;;2.55;82.61;98595.34;4202987;28;20251;-86
2023/03/04 00:57:02;;;;;;;48.90;28.90;;;;;;;2.52;82.61;98595.44;4203514;28;20233;-86
2023/03/04 00:59:05;;;;;;;41.78;26.67;;;;;;;2.48;82.72;98596.44;4190064;28;20209;-86
2023/03/04 01:01:08;;;;;;;48.40;27.58;;;;;;;2.47;82.67;98581.03;4167772;28;20298;-86
2023/03/04 01:03:11;;;;;;;48.95;27.75;;;;;;;2.46;83.04;98590.47;4181826;28;20202;-86
2023/03/04 01:05:15;;;;;;;46.35;26.58;;;;;;;2.45;83.03;98591.38;4176000;28;20682;-86
2023/03/04 01:07:19;;;;;;;42.30;25.23;;;;;;;2.45;82.63;98581.06;4170582;28;20226;-86
2023/03/04 01:09:22;;;;;;;42.97;26.42;;;;;;;2.42;82.40;98583.72;4190944;28;20632;-86
2023/03/04 01:11:25;;;;;;;44.65;26.40;;;;;;;2.46;82.57;98582.75;4186922;28;20210;-86
2023/03/04 01:13:29;;;;;;;48.03;26.95;;;;;;;2.39;82.22;98581.25;4174726;28;20199;-86
2023/03/04 01:15:32;;;;;;;48.58;26.95;;;;;;;2.41;82.59;98586.34;4186832;28;20701;-86
2023/03/04 01:17:35;;;;;;;46.25;26.83;;;;;;;2.38;82.84;98587.28;4177332;28;20214;-86
2023/03/04 01:19:38;;;;;;;46.30;27.10;;;;;;;2.35;82.51;98582.22;4185288;28;20209;-86
2023/03/04 01:21:41;;;;;;;42.33;28.48;;;;;;;2.33;82.87;98583.16;4176105;28;20210;-86
2023/03/04 01:23:46;;;;;;;49.08;28.95;;;;;;;2.32;83.29;98578.91;4190686;28;20304;-86
2023/03/04 01:25:49;;;;;;;47.35;27.60;;;;;;;2.32;83.24;98580.63;4223612;28;20219;-86
2023/03/04 01:27:54;;;;;;;51.03;28.58;;;;;;;2.29;83.59;98578.16;4177111;28;20631;-86
2023/03/04 01:29:57;;;;;;;41.15;25.15;;;;;;;2.26;83.46;98579.06;4205043;28;20261;-86
2023/03/04 01:32:00;;;;;;;42.30;25.83;;;;;;;2.25;83.33;98585.09;4193253;28;20306;-86
2023/03/04 01:34:03;;;;;;;48.03;27.35;;;;;;;2.22;83.70;98574.03;4188272;28;20209;-86
2023/03/04 01:36:07;;;;;;;43.42;27.05;;;;;;;2.17;83.97;98573.34;4170879;28;20234;-86
2023/03/04 01:38:10;;;;;;;50.30;27.90;;;;;;;2.15;84.14;98578.53;4192653;28;20218;-86
2023/03/04 01:40:15;;;;;;;43.50;25.73;;;;;;;2.12;83.87;98576.03;4186698;28;20240;-86
2023/03/04 01:42:20;;;;;;;42.83;26.17;;;;;;;2.09;82.89;98572.69;4192743;28;20979;-86
2023/03/04 01:44:23;;;;;;;43.95;26.42;;;;;;;2.07;82.56;98569.31;4190093;28;20224;-86
2023/03/04 01:46:27;;;;;;;39.95;25.42;;;;;;;2.08;82.63;98565.88;4190092;28;20223;-86
2023/03/04 01:48:32;;;;;;;41.55;25.05;;;;;;;2.06;83.02;98565.91;4190542;28;20212;-86
2023/03/04 01:50:36;;;;;;;40.58;26.02;;;;;;;2.07;83.12;98566.75;4181735;28;20229;-86
2023/03/04 01:52:39;;;;;;;41.50;25.70;;;;;;;2.03;83.28;98572.84;4192842;28;20227;-86
2023/03/04 01:54:43;;;;;;;42.47;25.95;;;;;;;1.99;83.75;98568.69;4214000;27;20204;-86
2023/03/04 01:56:49;;;;;;;43.90;25.92;;;;;;;1.94;83.75;98575.69;4179622;28;20244;-86
2023/03/04 01:59:11;;;;;;;44.95;26.17;;;;;;;1.92;83.04;98567.16;4187681;28;20209;-86
2023/03/04 02:01:14;;;;;;;42.60;26.42;;;;;;;1.88;82.81;98568.16;4184053;28;21784;-86
2023/03/04 02:03:19;;;;;;;41.55;26.10;;;;;;;1.86;83.55;98574.22;4185394;28;20615;-86
2023/03/04 02:05:23;;;;;;;42.10;24.70;;;;;;;1.84;83.39;98571.69;4175780;28;20228;-86
2023/03/04 02:07:26;;;;;;;41.00;25.25;;;;;;;1.87;83.30;98574.16;4201134;28;20225;-86
2023/03/04 02:09:30;;;;;;;40.45;25.02;;;;;;;1.88;83.05;98571.56;4173879;28;20257;-86
2023/03/04 02:11:35;;;;;;;40.50;25.13;;;;;;;1.88;83.10;98568.16;4198904;28;20755;-86
2023/03/04 02:13:39;;;;;;;39.60;25.10;;;;;;;1.86;82.69;98564.75;4172998;28;20293;-86
2023/03/04 02:15:44;;;;;;;38.13;23.60;;;;;;;1.90;83.34;98563.81;4180216;28;20249;-86
2023/03/04 02:17:47;;;;;;;42.72;25.80;;;;;;;1.88;82.92;98568.16;4187788;28;20719;-86
2023/03/04 02:19:55;;;;;;;45.30;24.63;;;;;;;1.88;83.19;98563.84;4194203;28;20288;-86
2023/03/04 02:21:58;;;;;;;39.65;24.10;;;;;;;1.87;83.32;98564.72;4167382;28;20255;-86
2023/03/04 02:24:10;;;;;;;42.15;24.60;;;;;;;1.83;83.98;98567.41;4184719;28;20661;-86
2023/03/04 02:26:16;;;;;;;44.35;24.13;;;;;;;1.82;83.24;98564.88;4189346;28;20201;-86
2023/03/04 02:28:21;;;;;;;45.08;24.25;;;;;;;1.81;83.09;98556.34;4200828;28;20204;-86
2023/03/04 02:30:25;;;;;;;40.90;23.80;;;;;;;1.76;83.44;98560.75;4187139;28;20232;-86
2023/03/04 02:32:28;;;;;;;41.83;24.95;;;;;;;1.68;82.92;98559.25;4184359;28;20687;-86
2023/03/04 02:34:33;;;;;;;40.83;26.33;;;;;;;1.62;82.85;98565.41;4171647;28;20226;-86
2023/03/04 02:36:36;;;;;;;41.38;23.67;;;;;;;1.57;82.70;98556.13;4173431;28;20728;-87
2023/03/04 02:38:39;;;;;;;37.00;21.75;;;;;;;1.48;82.12;98566.66;4205541;28;20205;-86
2023/03/04 02:40:46;;;;;;;38.35;23.08;;;;;;;1.46;82.50;98561.56;4174683;28;20195;-86
2023/03/04 02:42:51;;;;;;;39.65;23.83;;;;;;;1.47;81.61;98558.09;4190811;28;20236;-87
2023/03/04 02:44:59;;;;;;;42.53;24.27;;;;;;;1.44;82.95;98560.75;4169038;28;20293;-86
2023/03/04 02:47:04;;;;;;;43.83;22.92;;;;;;;1.41;83.28;98560.84;4171012;28;20206;-86
2023/03/04 02:49:07;;;;;;;38.00;23.10;;;;;;;1.41;82.77;98565.97;4189449;28;20209;-87
2023/03/04 02:51:10;;;;;;;44.75;23.65;;;;;;;1.44;83.44;98563.31;4217423;28;20200;-86
2023/03/04 02:53:14;;;;;;;37.45;23.55;;;;;;;1.43;83.67;98569.34;4191024;28;20193;-87
2023/03/04 02:55:17;;;;;;;41.25;23.75;;;;;;;1.42;83.53;98561.66;4189393;28;20990;-86
2023/03/04 02:57:21;;;;;;;41.33;24.27;;;;;;;1.42;83.19;98570.19;4170726;28;20218;-86
2023/03/04 02:59:29;;;;;;;39.90;24.75;;;;;;;1.45;83.24;98566.72;4170122;28;20260;-86
2023/03/04 03:01:32;;;;;;;39.88;23.98;;;;;;;1.46;83.50;98571.81;4175840;28;20252;-86
2023/03/04 03:03:36;;;;;;;45.35;25.25;;;;;;;1.41;83.36;98570.25;4207089;28;20695;-86
2023/03/04 03:05:39;;;;;;;38.47;23.75;;;;;;;1.39;84.34;98571.19;4187181;28;20198;-86
2023/03/04 03:07:43;;;;;;;44.30;24.20;;;;;;;1.38;84.00;98564.34;4180792;28;20347;-86
2023/03/04 03:09:46;;;;;;;43.40;25.63;;;;;;;1.34;84.04;98571.28;4173628;28;20210;-86
2023/03/04 03:11:49;;;;;;;41.15;24.65;;;;;;;1.29;84.05;98564.56;4186548;28;20248;-86
2023/03/04 03:13:52;;;;;;;38.80;22.63;;;;;;;1.28;83.96;98565.44;4172490;28;20240;-86
2023/03/04 03:15:57;;;;;;;41.50;23.95;;;;;;;1.26;84.47;98564.66;4216226;28;20232;-86
2023/03/04 03:18:01;;;;;;;43.60;22.88;;;;;;;1.24;83.67;98567.25;4188360;28;20255;-86
2023/03/04 03:20:05;;;;;;;37.85;22.90;;;;;;;1.25;83.10;98565.50;4174703;28;20263;-86
2023/03/04 03:22:08;;;;;;;36.60;21.77;;;;;;;1.26;83.22;98564.66;4163460;28;20213;-86
2023/03/04 03:24:11;;;;;;;40.15;22.85;;;;;;;1.23;82.86;98565.56;4164968;28;20212;-86
2023/03/04 03:26:14;;;;;;;45.22;25.50;;;;;;;1.16;82.72;98563.19;4202319;28;20204;-86
2023/03/04 03:28:18;;;;;;;40.25;23.80;;;;;;;1.11;82.85;98560.75;4201320;28;20213;-86
2023/03/04 03:30:21;;;;;;;41.30;25.08;;;;;;;1.08;83.17;98563.38;4189135;28;20212;-87
2023/03/04 03:32:26;;;;;;;43.15;25.42;;;;;;;1.10;83.83;98558.22;4185923;28;20305;-86
2023/03/04 03:34:29;;;;;;;44.45;26.40;;;;;;;1.08;83.86;98559.94;4171231;28;20200;-86
2023/03/04 03:36:32;;;;;;;41.20;24.00;;;;;;;1.08;84.16;98559.94;4187347;28;20260;-86
2023/03/04 03:38:36;;;;;;;43.45;24.95;;;;;;;1.07;84.28;98559.13;4190060;28;20212;-87
2023/03/04 03:40:39;;;;;;;44.72;25.25;;;;;;;1.15;84.35;98564.91;4187647;28;20592;-86
2023/03/04 03:42:42;;;;;;;42.92;25.15;;;;;;;1.18;84.55;98553.72;4187500;28;20708;-86
2023/03/04 03:44:45;;;;;;;46.75;24.40;;;;;;;1.16;84.26;98556.31;4189108;28;20291;-86
2023/03/04 03:46:48;;;;;;;38.75;23.30;;;;;;;1.15;83.88;98558.94;4186555;28;20270;-86
2023/03/04 03:48:53;;;;;;;50.20;25.38;;;;;;;1.13;83.45;98558.97;4172409;28;20250;-88
2023/03/04 03:50:56;;;;;;;49.70;26.25;;;;;;;1.14;83.80;98552.09;4203533;28;20288;-86
2023/03/04 03:52:59;;;;;;;39.03;24.50;;;;;;;1.13;84.01;98563.28;4187580;28;20720;-87
2023/03/04 03:55:03;;;;;;;39.45;23.40;;;;;;;1.11;83.94;98565.00;4185208;28;20258;-86
2023/03/04 03:57:06;;;;;;;42.80;23.48;;;;;;;1.10;83.46;98553.06;4174414;28;20310;-86
2023/03/04 03:59:09;;;;;;;41.13;23.70;;;;;;;1.08;83.74;98559.94;4173536;28;20209;-86
2023/03/04 04:01:13;;;;;;;37.92;22.23;;;;;;;1.07;82.79;98555.72;4175300;28;20210;-86
2023/03/04 04:03:16;;;;;;;34.70;21.90;;;;;;;1.03;82.90;98556.66;4190456;28;20213;-86
2023/03/04 04:05:21;;;;;;;36.95;21.50;;;;;;;1.07;83.50;98564.25;4172744;28;20759;-86
2023/03/04 04:07:24;;;;;;;39.92;23.60;;;;;;;1.02;82.96;98565.22;4189046;28;20221;-86
2023/03/04 04:09:27;;;;;;;41.83;24.08;;;;;;;0.98;82.99;98559.34;4204783;28;20205;-86
2023/03/04 04:11:30;;;;;;;45.00;24.55;;;;;;;0.97;82.58;98574.78;4174307;28;20214;-86
2023/03/04 04:13:33;;;;;;;42.95;24.77;;;;;;;0.94;82.52;98572.28;4189689;28;20206;-86
2023/03/04 04:15:37;;;;;;;39.40;23.30;;;;;;;0.91;82.38;98572.34;4187523;28;20267;-86
2023/03/04 04:17:40;;;;;;;40.80;22.70;;;;;;;0.89;82.30;98566.41;4168678;28;20197;-86
2023/03/04 04:19:43;;;;;;;44.55;24.85;;;;;;;0.86;82.20;98569.03;4189130;28;20310;-86
2023/03/04 04:21:49;;;;;;;36.38;22.83;;;;;;;0.81;82.42;98563.16;4187085;28;20205;-86
2023/03/04 04:23:52;;;;;;;39.45;24.08;;;;;;;0.78;81.62;98564.94;4171719;28;20659;-86
2023/03/04 04:25:56;;;;;;;42.40;23.75;;;;;;;0.80;82.29;98568.31;4192835;28;20206;-86
2023/03/04 04:27:59;;;;;;;38.53;23.00;;;;;;;0.77;82.22;98566.69;4176514;28;20236;-86
2023/03/04 04:30:02;;;;;;;41.20;24.30;;;;;;;0.74;82.73;98569.31;4199804;28;20793;-86
2023/03/04 04:32:06;;;;;;;45.40;24.05;;;;;;;0.71;82.52;98569.38;4191172;28;20587;-86
2023/03/04 04:34:09;;;;;;;38.67;21.95;;;;;;;0.71;82.49;98574.53;4189513;28;20834;-86
2023/03/04 04:36:13;;;;;;;39.45;23.85;;;;;;;0.75;82.85;98567.59;4188305;28;20304;-86
2023/03/04 04:38:18;;;;;;;35.35;22.58;;;;;;;0.69;82.22;98571.16;4188900;28;20634;-86
2023/03/04 04:40:21;;;;;;;36.40;22.38;;;;;;;0.69;82.37;98570.28;4185719;28;20240;-86
2023/03/04 04:42:24;;;;;;;35.67;20.77;;;;;;;0.66;81.80;98568.66;4172911;28;20206;-88
2023/03/04 04:44:27;;;;;;;38.20;22.10;;;;;;;0.64;82.45;98560.13;4170047;28;20217;-86
2023/03/04 04:46:30;;;;;;;39.38;22.75;;;;;;;0.65;82.43;98563.56;4194176;28;20224;-86
2023/03/04 04:48:33;;;;;;;36.70;21.08;;;;;;;0.69;82.12;98566.03;4176624;28;20213;-87
2023/03/04 04:50:37;;;;;;;35.72;21.13;;;;;;;0.70;82.27;98567.69;4188728;28;20596;-86
2023/03/04 04:52:40;;;;;;;40.72;21.83;;;;;;;0.68;82.80;98568.63;4220846;28;20217;-86
2023/03/04 04:54:45;;;;;;;37.75;21.58;;;;;;;0.60;82.19;98566.22;4187156;28;20316;-86
2023/03/04 04:56:48;;;;;;;40.17;23.27;;;;;;;0.52;81.34;98562.97;4184824;28;20221;-86
2023/03/04 04:58:51;;;;;;;39.92;21.27;;;;;;;0.43;80.37;98564.06;4187960;28;20232;-86
2023/03/04 05:00:56;;;;;;;39.97;23.48;;;;;;;0.36;80.77;98568.47;4191694;28;20197;-86
2023/03/04 05:02:59;;;;;;;39.80;23.17;;;;;;;0.42;80.39;98562.34;4191687;28;20275;-86
2023/03/04 05:05:03;;;;;;;46.25;24.60;;;;;;;0.43;81.52;98571.75;4202317;28;20371;-86
2023/03/04 05:07:06;;;;;;;41.35;23.02;;;;;;;0.47;81.83;98569.09;4189813;28;20844;-86
2023/03/04 05:09:09;;;;;;;44.63;24.90;;;;;;;0.46;82.33;98562.25;4191171;28;20608;-87
2023/03/04 05:11:14;;;;;;;39.30;22.13;;;;;;;0.44;83.40;98578.53;4195297;28;20221;-86
2023/03/04 05:13:18;;;;;;;40.42;24.63;;;;;;;0.44;82.82;98578.53;4191934;28;20261;-86
2023/03/04 05:15:21;;;;;;;36.97;23.63;;;;;;;0.38;82.80;98574.41;4176198;28;20237;-86
2023/03/04 05:17:25;;;;;;;38.97;24.10;;;;;;;0.35;82.72;98576.19;4177880;28;20225;-86
2023/03/04 05:19:28;;;;;;;39.00;24.38;;;;;;;0.36;82.76;98577.88;4193970;28;20208;-86
2023/03/04 05:21:31;;;;;;;36.95;22.67;;;;;;;0.33;82.21;98590.75;4172443;28;20644;-86
2023/03/04 05:23:36;;;;;;;41.53;23.35;;;;;;;0.30;82.24;98585.69;4187755;28;20220;-86
2023/03/04 05:25:40;;;;;;;35.63;22.45;;;;;;;0.28;82.88;98593.41;4182340;28;20205;-86
2023/03/04 05:27:45;;;;;;;41.20;24.13;;;;;;;0.30;82.97;98590.81;4182658;28;20212;-86
2023/03/04 05:29:48;;;;;;;42.92;23.85;;;;;;;0.37;83.01;98585.53;4186251;28;20743;-86
2023/03/04 05:31:51;;;;;;;40.38;22.13;;;;;;;0.40;82.37;98587.19;4185781;28;20741;-86
2023/03/04 05:33:54;;;;;;;38.20;22.83;;;;;;;0.40;82.86;98588.03;4182599;28;20198;-86
2023/03/04 05:35:58;;;;;;;39.08;22.02;;;;;;;0.41;83.52;98592.28;4189700;28;20209;-88
2023/03/04 05:38:01;;;;;;;37.85;21.33;;;;;;;0.43;82.99;98598.22;4197288;28;20244;-86
2023/03/04 05:40:05;;;;;;;39.03;22.88;;;;;;;0.46;83.09;98599.00;4189849;28;20292;-86
2023/03/04 05:42:08;;;;;;;37.85;20.33;;;;;;;0.47;83.01;98595.56;4190730;28;20225;-86
2023/03/04 05:44:13;;;;;;;41.42;23.45;;;;;;;0.45;82.23;98590.50;4187689;28;20212;-86
2023/03/04 05:46:17;;;;;;;42.45;24.10;;;;;;;0.42;82.05;98591.38;4188839;28;20205;-86
2023/03/04 05:48:21;;;;;;;36.95;23.00;;;;;;;0.40;82.21;98589.75;4192662;28;20626;-86
2023/03/04 05:50:25;;;;;;;43.80;24.17;;;;;;;0.36;82.25;98593.25;4192636;28;20562;-87
2023/03/04 05:52:28;;;;;;;48.28;24.83;;;;;;;0.41;82.26;98594.00;4174705;28;20206;-86
2023/03/04 05:54:31;;;;;;;41.03;23.40;;;;;;;0.46;82.64;98603.28;4179529;28;20209;-86
2023/03/04 05:56:34;;;;;;;41.05;22.27;;;;;;;0.48;83.08;98604.97;4182553;28;20225;-86
2023/03/04 05:58:37;;;;;;;41.72;23.48;;;;;;;0.48;83.20;98597.25;4165850;28;20594;-86
2023/03/04 06:00:42;;;;;;;38.05;23.08;;;;;;;0.54;83.24;98604.81;4190476;28;20232;-86
2023/03/04 06:02:45;;;;;;;48.42;28.63;;;;;;;0.62;83.00;98607.22;4189169;28;20201;-86
2023/03/04 06:04:48;;;;;;;42.60;25.35;;;;;;;0.60;82.89;98591.88;4174044;28;20205;-87
2023/03/04 06:06:51;;;;;;;43.10;26.33;;;;;;;0.66;83.19;98601.13;4193377;28;20320;-87
2023/03/04 06:08:55;;;;;;;42.35;25.05;;;;;;;0.64;83.76;98608.03;4187670;28;20194;-86
2023/03/04 06:10:58;;;;;;;40.95;25.63;;;;;;;0.70;83.55;98608.75;4176761;28;20233;-86
2023/03/04 06:13:02;;;;;;;38.00;23.85;;;;;;;0.76;83.48;98613.75;4187126;28;20741;-86
2023/03/04 06:15:05;;;;;;;38.60;22.83;;;;;;;0.82;83.84;98611.03;4170471;28;20210;-86
2023/03/04 06:17:10;;;;;;;37.38;22.50;;;;;;;0.88;83.67;98618.59;4188446;28;20243;-87
2023/03/04 06:19:13;;;;;;;37.67;21.05;;;;;;;0.93;83.15;98627.03;4178036;28;20202;-86
2023/03/04 06:21:16;;;;;;;38.22;24.33;;;;;;;0.91;83.30;98626.25;4187121;28;20213;-86
2023/03/04 06:23:19;;;;;;;43.88;25.27;;;;;;;0.95;84.36;98633.00;4189454;28;20210;-86
2023/03/04 06:25:23;;;;;;;37.05;23.48;;;;;;;0.91;84.27;98636.50;4190367;28;20229;-86
2023/03/04 06:27:26;;;;;;;40.88;23.95;;;;;;;0.89;83.77;98634.84;4175866;28;20225;-86
2023/03/04 06:29:30;;;;;;;37.78;24.60;;;;;;;0.91;83.79;98643.38;4190740;28;20238;-86
2023/03/04 06:31:33;;;;;;;40.67;23.48;;;;;;;0.92;84.09;98643.34;4192564;28;20299;-86
2023/03/04 06:33:38;;;;;;;40.55;22.63;;;;;;;0.96;84.65;98643.25;4187592;28;20209;-86
2023/03/04 06:35:41;;;;;;;35.95;22.55;;;;;;;1.00;84.42;98654.28;4188165;28;20212;-86
2023/03/04 06:37:44;;;;;;;41.17;23.83;;;;;;;1.02;84.60;98653.38;4199176;28;20949;-87
2023/03/04 06:39:47;;;;;;;37.22;22.40;;;;;;;1.07;84.77;98658.41;4176967;28;20234;-86
2023/03/04 06:41:50;;;;;;;41.20;22.60;;;;;;;1.12;85.53;98657.41;4192180;28;20295;-87
2023/03/04 06:43:53;;;;;;;42.90;24.10;;;;;;;1.14;85.17;98655.66;4172192;28;20212;-88
2023/03/04 06:45:57;;;;;;;40.92;22.17;;;;;;;1.17;84.50;98653.00;4174430;28;20248;-87
2023/03/04 06:48:00;;;;;;;39.08;23.17;;;;;;;1.21;84.83;98661.50;4173485;28;20256;-86
2023/03/04 06:50:05;;;;;;;41.17;22.38;;;;;;;1.22;84.89;98661.47;4206292;28;20698;-88
2023/03/04 06:52:10;;;;;;;38.15;24.35;;;;;;;1.27;85.31;98666.50;4187331;28;20777;-87
2023/03/04 06:54:13;;;;;;;41.90;23.33;;;;;;;1.34;85.15;98663.75;4184640;28;20296;-86
2023/03/04 06:56:16;;;;;;;43.20;22.95;;;;;;;1.37;85.54;98663.69;4185851;28;20205;-86
2023/03/04 06:58:19;;;;;;;36.97;23.90;;;;;;;1.42;85.50;98660.09;4192525;28;20256;-86
2023/03/04 07:00:23;;;;;;;40.70;22.38;;;;;;;1.50;85.50;98671.06;4188248;28;23195;-86
2023/03/04 07:02:27;;;;;;;46.33;23.27;;;;;;;1.54;86.04;98670.09;4190278;28;20206;-86
2023/03/04 07:04:31;;;;;;;41.90;23.80;;;;;;;1.59;85.98;98678.53;4187512;28;20217;-86
2023/03/04 07:06:36;;;;;;;39.28;22.73;;;;;;;1.64;86.38;98676.72;4205514;28;20260;-86
2023/03/04 07:08:39;;;;;;;38.28;22.65;;;;;;;1.68;85.83;98675.75;4188110;28;20571;-85
2023/03/04 07:10:42;;;;;;;42.45;25.45;;;;;;;1.77;85.94;98690.09;4187025;28;20228;-86
2023/03/04 07:12:46;;;;;;;40.65;24.23;;;;;;;1.78;85.84;98690.06;4187737;28;20213;-86
2023/03/04 07:14:49;;;;;;;40.65;24.10;;;;;;;1.83;85.62;98685.66;4203648;28;20208;-88
2023/03/04 07:16:52;;;;;;;43.38;25.20;;;;;;;1.89;86.38;98698.34;4191119;28;20205;-86
2023/03/04 07:18:55;;;;;;;43.53;25.60;;;;;;;1.90;86.05;98694.91;4182303;28;20217;-86
2023/03/04 07:20:58;;;;;;;40.20;24.73;;;;;;;1.92;85.32;98695.72;4169657;28;20210;-86
2023/03/04 07:23:03;;;;;;;41.88;24.83;;;;;;;1.92;85.57;98698.28;4184000;28;20213;-86
2023/03/04 07:25:07;;;;;;;46.45;25.40;;;;;;;1.96;85.67;98697.34;4168551;28;20329;-86
2023/03/04 07:27:10;;;;;;;38.45;24.20;;;;;;;1.99;86.41;98699.84;4215279;28;20208;-86
2023/03/04 07:29:13;;;;;;;43.42;25.02;;;;;;;2.01;86.31;98704.03;4191875;28;20214;-86
2023/03/04 07:31:21;;;;;;;44.08;26.35;;;;;;;2.05;86.57;98704.81;4185446;28;20209;-88
2023/03/04 07:33:24;;;;;;;42.75;25.80;;;;;;;2.06;86.94;98709.94;4171452;28;20308;-86
2023/03/04 07:35:27;;;;;;;43.80;26.25;;;;;;;2.10;86.86;98713.25;4188716;28;20225;-86
2023/03/04 07:37:30;;;;;;;41.50;23.63;;;;;;;2.17;87.01;98707.09;4193597;28;20211;-86
2023/03/04 07:39:35;;;;;;;31.60;19.25;;;;;;;2.27;86.90;98714.53;4173673;28;20670;-86
2023/03/04 07:41:38;;;;;;;35.92;18.98;;;;;;;2.36;87.04;98717.69;4186960;28;20205;-86
2023/03/04 07:43:41;;;;;;;33.75;18.98;;;;;;;2.43;87.23;98718.38;4191537;28;20288;-87
2023/03/04 07:45:44;;;;;;;32.42;18.83;;;;;;;2.52;87.30;98713.81;4183678;28;20210;-86
2023/03/04 07:47:47;;;;;;;33.45;19.40;;;;;;;2.59;87.48;98717.91;4189192;28;20296;-86
2023/03/04 07:49:50;;;;;;;33.55;18.48;;;;;;;2.67;88.11;98715.97;4188273;28;20205;-86
2023/03/04 07:51:54;;;;;;;29.38;16.90;;;;;;;2.76;87.73;98713.16;4171641;28;20266;-86
2023/03/04 07:54:00;;;;;;;31.50;19.25;;;;;;;2.84;87.71;98716.34;4188009;28;20613;-86
2023/03/04 07:56:07;;;;;;;30.23;17.60;;;;;;;2.88;87.43;98717.97;4198857;28;20212;-86
2023/03/04 07:58:10;;;;;;;31.65;18.25;;;;;;;2.94;87.49;98723.78;4179361;28;20221;-86
2023/03/04 08:00:15;;;;;;;30.73;18.85;;;;;;;3.00;87.44;98718.44;4188342;28;20251;-86
2023/03/04 08:02:18;;;;;;;33.00;20.58;;;;;;;3.00;87.13;98721.03;4201442;28;20442;-86
2023/03/04 08:04:22;;;;;;;34.92;21.00;;;;;;;3.05;87.39;98726.03;4186894;28;20571;-86
2023/03/04 08:06:25;;;;;;;32.10;20.55;;;;;;;3.08;87.06;98728.53;4187601;28;20224;-86
2023/03/04 08:08:29;;;;;;;32.92;18.95;;;;;;;3.12;87.37;98727.56;4191644;28;20238;-86
2023/03/04 08:10:32;;;;;;;37.13;21.30;;;;;;;3.14;87.33;98736.09;4189193;28;20205;-86
2023/03/04 08:12:36;;;;;;;30.88;18.20;;;;;;;3.17;87.24;98734.25;4176407;28;20216;-87
2023/03/04 08:14:39;;;;;;;33.30;19.85;;;;;;;3.21;86.53;98733.28;4179159;28;20306;-84
2023/03/04 08:16:42;;;;;;;28.75;18.10;;;;;;;3.24;87.50;98740.94;4209637;28;20193;-82
2023/03/04 08:18:47;;;;;;;31.13;19.60;;;;;;;3.27;87.19;98745.16;4189681;28;20233;-83
2023/03/04 08:20:51;;;;;;;33.13;19.80;;;;;;;3.24;86.67;98743.50;4176180;28;20790;-83
2023/03/04 08:22:54;;;;;;;33.00;20.77;;;;;;;3.16;86.58;98742.91;4189031;28;20233;-86
2023/03/04 08:24:57;;;;;;;35.33;21.70;;;;;;;3.13;86.76;98735.25;4173004;28;21243;-83
2023/03/04 08:27:00;;;;;;;36.72;22.83;;;;;;;3.16;86.25;98742.03;4181976;28;20197;-83
2023/03/04 08:29:06;;;;;;;41.75;24.45;;;;;;;3.18;86.68;98745.44;4168205;28;20620;-84
2023/03/04 08:31:09;;;;;;;38.25;22.40;;;;;;;3.19;86.33;98750.53;4189838;28;20205;-84
2023/03/04 08:33:12;;;;;;;34.38;23.52;;;;;;;3.21;86.84;98745.34;4191362;28;20205;-83
2023/03/04 08:35:16;;;;;;;36.83;21.25;;;;;;;3.10;87.05;98747.38;4171778;28;20690;-84
2023/03/04 08:37:19;;;;;;;38.47;23.15;;;;;;;3.13;87.14;98739.53;4192748;28;20747;-83
2023/03/04 08:39:22;;;;;;;41.85;23.77;;;;;;;3.13;86.92;98747.25;4202594;28;20216;-83
2023/03/04 08:41:26;;;;;;;35.25;22.33;;;;;;;3.14;86.77;98752.38;4193342;28;20209;-83
2023/03/04 08:43:29;;;;;;;34.78;20.95;;;;;;;3.16;87.01;98755.78;4172275;28;20216;-83
2023/03/04 08:45:34;;;;;;;34.20;21.40;;;;;;;3.10;87.16;98755.94;4178621;28;20260;-83
2023/03/04 08:47:38;;;;;;;33.08;20.60;;;;;;;3.14;87.42;98756.69;4188717;28;20301;-84
2023/03/04 08:49:41;;;;;;;32.35;19.35;;;;;;;3.16;87.38;98754.91;4178885;28;20758;-84
2023/03/04 08:51:44;;;;;;;32.38;18.35;;;;;;;3.17;87.11;98751.44;4179292;28;20205;-82
2023/03/04 08:53:48;;;;;;;29.27;17.52;;;;;;;3.20;87.30;98759.09;4192713;28;20650;-82
2023/03/04 08:55:52;;;;;;;38.45;23.85;;;;;;;3.22;87.31;98752.16;4163385;28;20567;-82
2023/03/04 08:57:55;;;;;;;32.38;19.73;;;;;;;3.24;87.40;98761.53;4162715;28;20210;-84
2023/03/04 08:59:59;;;;;;;29.48;20.45;;;;;;;3.30;87.50;98757.03;4167697;28;20331;-86
2023/03/04 09:02:03;;;;;;;32.53;20.45;;;;;;;3.35;86.76;98751.75;4190119;28;20202;-81
2023/03/04 09:04:06;;;;;;;32.63;19.50;;;;;;;3.40;86.80;98757.63;4176527;28;20252;-83
2023/03/04 09:06:11;;;;;;;30.98;18.48;;;;;;;3.44;86.46;98757.50;4187990;28;20626;-83
2023/03/04 09:08:15;;;;;;;33.03;19.92;;;;;;;3.51;86.12;98755.59;4175700;28;20710;-82
2023/03/04 09:10:18;;;;;;;31.27;19.02;;;;;;;3.60;86.94;98769.03;4194549;28;20201;-83
2023/03/04 09:12:21;;;;;;;32.25;19.27;;;;;;;3.68;87.17;98756.75;4180577;28;20225;-83
2023/03/04 09:14:24;;;;;;;34.35;20.30;;;;;;;3.78;86.27;98758.16;4190379;28;20205;-83
2023/03/04 09:16:28;;;;;;;36.25;22.20;;;;;;;3.82;86.24;98752.03;4176303;28;20210;-83
2023/03/04 09:18:33;;;;;;;36.25;22.10;;;;;;;3.88;86.26;98760.41;4188010;28;20213;-79
2023/03/04 09:20:36;;;;;;;33.58;20.75;;;;;;;3.92;85.75;98761.13;4191157;28;20244;-83
2023/03/04 09:22:39;;;;;;;34.72;19.75;;;;;;;3.93;85.77;98757.69;4184656;28;20751;-83
2023/03/04 09:24:43;;;;;;;35.25;19.77;;;;;;;3.97;86.08;98761.84;4188861;28;20206;-83
2023/03/04 09:26:50;;;;;;;37.05;22.02;;;;;;;3.96;86.46;98763.56;4187421;28;20682;-82
2023/03/04 09:28:54;;;;;;;37.50;21.65;;;;;;;3.97;85.45;98759.25;4178401;28;20292;-83
2023/03/04 09:30:57;;;;;;;35.47;20.30;;;;;;;4.03;85.65;98764.22;4162825;28;21394;-81
2023/03/04 09:33:01;;;;;;;32.15;19.60;;;;;;;4.10;86.19;98770.88;4179482;28;20202;-81
2023/03/04 09:35:06;;;;;;;33.83;21.05;;;;;;;4.17;85.97;98772.38;4180683;28;20232;-81